Time;durP1;ratioP1;P1;durP2;ratioP2;P2;SDS_P1;SDS_P2;PMS_P1;PMS_P2;Temp;Humidity;BMP_temperature;BMP_pressure;BME280_temperature;BME280_humidity;BME280_pressure;Samples;Min_cycle;Max_cycle;Signal;HPM_P1;HPM_P2
2021/10/05 00:01:21;;;;;;;6.38;3.20;;;;;;;;;;5006900;28;20101;-58
2021/10/05 00:03:46;;;;;;;5.20;2.63;;;;;;;;;;5006522;28;20053;-59
2021/10/05 00:06:11;;;;;;;5.87;3.17;;;;;;;;;;5000250;28;20453;-57
2021/10/05 00:08:36;;;;;;;5.10;2.43;;;;;;;;;;4986014;28;20600;-57
2021/10/05 00:11:02;;;;;;;4.35;1.90;;;;;;;;;;5014709;28;20686;-57
2021/10/05 00:13:27;;;;;;;4.85;1.77;;;;;;;;;;5004520;28;20080;-57
2021/10/05 00:15:52;;;;;;;4.80;2.00;;;;;;;;;;5002662;28;20014;-57
2021/10/05 00:18:18;;;;;;;5.70;1.88;;;;;;;;;;5002647;28;20391;-57
2021/10/05 00:20:43;;;;;;;5.03;2.45;;;;;;;;;;4997175;28;20018;-56
2021/10/05 00:23:08;;;;;;;4.97;2.60;;;;;;;;;;4995888;28;20017;-57
2021/10/05 00:25:34;;;;;;;5.28;2.38;;;;;;;;;;5002769;28;20323;-58
2021/10/05 00:27:59;;;;;;;6.05;2.50;;;;;;;;;;4998255;28;20018;-57
2021/10/05 00:30:24;;;;;;;4.82;2.40;;;;;;;;;;5002102;28;20088;-59
2021/10/05 00:32:49;;;;;;;4.40;1.87;;;;;;;;;;5013313;28;20141;-58
2021/10/05 00:35:15;;;;;;;4.60;1.95;;;;;;;;;;5002180;28;20260;-57
2021/10/05 00:37:40;;;;;;;6.20;2.33;;;;;;;;;;4995176;28;20030;-58
2021/10/05 00:40:06;;;;;;;4.60;2.10;;;;;;;;;;4998649;28;20022;-58
2021/10/05 00:42:31;;;;;;;4.80;1.83;;;;;;;;;;5001100;28;20585;-57
2021/10/05 00:44:56;;;;;;;4.47;2.17;;;;;;;;;;5000491;28;20507;-59
2021/10/05 00:47:22;;;;;;;4.45;2.20;;;;;;;;;;4996130;28;20076;-58
2021/10/05 00:49:48;;;;;;;4.57;2.05;;;;;;;;;;5002349;28;20037;-57
2021/10/05 00:52:15;;;;;;;5.20;2.50;;;;;;;;;;5003530;28;20064;-59
2021/10/05 00:54:41;;;;;;;5.40;2.53;;;;;;;;;;5009112;28;20040;-57
2021/10/05 00:57:07;;;;;;;5.03;2.60;;;;;;;;;;4998320;28;20021;-57
2021/10/05 00:59:33;;;;;;;5.53;2.28;;;;;;;;;;4997893;28;20029;-57
2021/10/05 01:01:59;;;;;;;5.40;2.63;;;;;;;;;;4989520;28;20025;-58
2021/10/05 01:04:24;;;;;;;6.68;2.55;;;;;;;;;;5001504;28;20022;-57
2021/10/05 01:07:00;;;;;;;4.73;2.37;;;;;;;;;;4988481;28;20026;-58
2021/10/05 01:09:26;;;;;;;5.28;2.50;;;;;;;;;;4997502;28;20300;-58
2021/10/05 01:11:51;;;;;;;5.93;2.55;;;;;;;;;;4998658;28;20469;-58
2021/10/05 01:14:16;;;;;;;5.05;2.40;;;;;;;;;;5002919;28;20084;-57
2021/10/05 01:16:41;;;;;;;5.03;2.30;;;;;;;;;;4997938;28;20388;-57
2021/10/05 01:19:07;;;;;;;5.10;2.55;;;;;;;;;;4991227;28;20269;-57
2021/10/05 01:21:32;;;;;;;4.97;2.30;;;;;;;;;;5003034;28;20469;-57
2021/10/05 01:24:11;;;;;;;4.88;2.17;;;;;;;;;;4989286;28;20276;-59
2021/10/05 01:26:36;;;;;;;5.18;2.80;;;;;;;;;;4957552;28;20145;-57
2021/10/05 01:29:04;;;;;;;5.63;2.42;;;;;;;;;;5000542;28;20117;-56
2021/10/05 01:31:33;;;;;;;4.82;2.30;;;;;;;;;;5000713;28;20535;-58
2021/10/05 01:33:59;;;;;;;4.55;2.15;;;;;;;;;;5000024;28;20010;-56
2021/10/05 01:36:25;;;;;;;4.82;2.50;;;;;;;;;;4997511;28;20026;-57
2021/10/05 01:38:50;;;;;;;5.45;2.85;;;;;;;;;;5001260;28;20025;-59
2021/10/05 01:41:15;;;;;;;5.87;2.37;;;;;;;;;;4991022;28;20642;-58
2021/10/05 01:43:40;;;;;;;4.93;2.57;;;;;;;;;;4998509;28;20325;-58
2021/10/05 01:46:11;;;;;;;4.50;2.30;;;;;;;;;;5000097;28;20291;-58
2021/10/05 01:48:37;;;;;;;5.60;2.60;;;;;;;;;;4996210;28;20292;-58
2021/10/05 01:51:02;;;;;;;5.35;2.20;;;;;;;;;;4997044;28;20367;-58
2021/10/05 01:53:27;;;;;;;5.30;2.63;;;;;;;;;;5000369;28;20508;-58
2021/10/05 01:55:52;;;;;;;5.10;2.83;;;;;;;;;;4993504;28;20906;-58
2021/10/05 01:58:18;;;;;;;4.72;2.38;;;;;;;;;;5001293;28;20269;-57
2021/10/05 02:00:43;;;;;;;5.53;2.28;;;;;;;;;;5006118;28;20049;-58
2021/10/05 02:03:08;;;;;;;5.33;2.80;;;;;;;;;;5003433;28;20092;-57
2021/10/05 02:05:35;;;;;;;5.82;2.72;;;;;;;;;;5001812;28;20328;-57
2021/10/05 02:08:00;;;;;;;6.35;2.53;;;;;;;;;;5003421;28;20025;-59
2021/10/05 02:10:26;;;;;;;5.25;2.83;;;;;;;;;;5002728;28;20045;-57
2021/10/05 02:12:51;;;;;;;6.88;2.63;;;;;;;;;;4963135;28;20572;-57
2021/10/05 02:15:16;;;;;;;5.85;2.65;;;;;;;;;;5004138;28;20029;-57
2021/10/05 02:17:42;;;;;;;6.63;3.08;;;;;;;;;;4993756;28;20022;-58
2021/10/05 02:20:08;;;;;;;8.75;2.97;;;;;;;;;;5004548;28;20017;-57
2021/10/05 02:22:33;;;;;;;8.18;3.05;;;;;;;;;;5002531;28;20030;-57
2021/10/05 02:24:58;;;;;;;8.93;3.75;;;;;;;;;;5006502;28;20144;-57
2021/10/05 02:27:24;;;;;;;7.55;3.35;;;;;;;;;;4960593;28;20157;-58
2021/10/05 02:29:49;;;;;;;6.63;3.08;;;;;;;;;;4973839;28;20045;-56
2021/10/05 02:32:14;;;;;;;5.53;2.45;;;;;;;;;;5000356;28;20859;-57
2021/10/05 02:34:40;;;;;;;5.88;3.00;;;;;;;;;;5000927;28;20030;-58
2021/10/05 02:37:06;;;;;;;6.05;2.63;;;;;;;;;;5002881;28;20018;-57
2021/10/05 02:39:31;;;;;;;5.65;2.90;;;;;;;;;;5004044;28;20026;-57
2021/10/05 02:41:57;;;;;;;6.10;2.40;;;;;;;;;;5001495;28;20040;-57
2021/10/05 02:44:22;;;;;;;6.67;2.30;;;;;;;;;;4925300;28;20838;-56
2021/10/05 02:46:47;;;;;;;5.28;2.70;;;;;;;;;;5001810;28;20654;-57
2021/10/05 02:49:13;;;;;;;4.78;1.77;;;;;;;;;;5004997;28;20022;-56
2021/10/05 02:51:39;;;;;;;6.47;2.10;;;;;;;;;;5004156;28;20033;-56
2021/10/05 02:54:04;;;;;;;5.28;2.40;;;;;;;;;;5001513;28;20022;-57
2021/10/05 02:56:29;;;;;;;5.10;2.38;;;;;;;;;;5004834;28;20041;-57
2021/10/05 02:58:55;;;;;;;4.50;2.08;;;;;;;;;;4987760;28;20022;-57
2021/10/05 03:01:20;;;;;;;5.80;2.33;;;;;;;;;;5008691;28;20426;-57
2021/10/05 03:03:45;;;;;;;7.32;2.45;;;;;;;;;;5002013;28;20026;-58
2021/10/05 03:06:10;;;;;;;13.30;3.17;;;;;;;;;;5000005;28;20010;-55
2021/10/05 03:08:37;;;;;;;8.38;2.75;;;;;;;;;;4997982;28;20033;-57
2021/10/05 03:11:03;;;;;;;6.53;2.40;;;;;;;;;;4999453;28;20014;-56
2021/10/05 03:13:32;;;;;;;9.25;2.03;;;;;;;;;;4998356;28;20026;-56
2021/10/05 03:16:00;;;;;;;4.93;1.92;;;;;;;;;;4997820;28;20038;-56
2021/10/05 03:18:25;;;;;;;3.92;1.50;;;;;;;;;;5002478;28;20033;-55
2021/10/05 03:20:50;;;;;;;4.77;1.63;;;;;;;;;;4997233;28;20329;-57
2021/10/05 03:23:15;;;;;;;6.55;2.10;;;;;;;;;;5003822;28;20273;-57
2021/10/05 03:25:41;;;;;;;4.10;1.60;;;;;;;;;;4996844;28;20025;-57
2021/10/05 03:28:07;;;;;;;4.50;1.63;;;;;;;;;;4997036;28;20424;-57
2021/10/05 03:30:32;;;;;;;4.53;1.75;;;;;;;;;;5004698;28;20373;-57
2021/10/05 03:32:57;;;;;;;5.53;1.70;;;;;;;;;;4998359;28;20359;-57
2021/10/05 03:35:22;;;;;;;5.28;1.67;;;;;;;;;;5004009;28;20257;-58
2021/10/05 03:37:48;;;;;;;5.57;1.80;;;;;;;;;;5002930;28;20025;-58
2021/10/05 03:40:13;;;;;;;4.73;1.70;;;;;;;;;;4999762;28;20018;-59
2021/10/05 03:42:39;;;;;;;6.20;2.15;;;;;;;;;;5001786;28;20624;-58
2021/10/05 03:45:04;;;;;;;4.53;1.60;;;;;;;;;;4997102;28;20388;-58
2021/10/05 03:47:31;;;;;;;4.65;1.58;;;;;;;;;;4999835;28;20025;-59
2021/10/05 03:49:56;;;;;;;4.68;1.52;;;;;;;;;;5004232;28;20767;-58
2021/10/05 03:52:21;;;;;;;4.00;1.60;;;;;;;;;;5001821;28;20080;-58
2021/10/05 03:54:46;;;;;;;4.15;1.50;;;;;;;;;;4996859;28;20296;-58
2021/10/05 03:57:12;;;;;;;4.00;1.40;;;;;;;;;;4995834;28;20033;-58
2021/10/05 03:59:37;;;;;;;4.93;1.80;;;;;;;;;;4992074;28;20099;-57
2021/10/05 04:02:02;;;;;;;4.63;1.63;;;;;;;;;;5001389;28;20022;-58
2021/10/05 04:04:28;;;;;;;4.32;1.33;;;;;;;;;;5002886;28;20367;-56
2021/10/05 04:06:53;;;;;;;5.95;1.58;;;;;;;;;;5002181;28;20488;-57
2021/10/05 04:09:18;;;;;;;4.40;1.60;;;;;;;;;;4982597;28;20090;-58
2021/10/05 04:11:43;;;;;;;5.43;1.90;;;;;;;;;;4999135;28;20048;-56
2021/10/05 04:14:09;;;;;;;5.88;2.00;;;;;;;;;;5004569;28;20264;-57
2021/10/05 04:16:34;;;;;;;5.00;1.93;;;;;;;;;;5003313;28;20573;-58
2021/10/05 04:18:59;;;;;;;4.70;2.17;;;;;;;;;;5000920;28;20718;-57
2021/10/05 04:21:25;;;;;;;5.75;2.28;;;;;;;;;;5002384;28;20567;-58
2021/10/05 04:23:50;;;;;;;4.80;1.90;;;;;;;;;;5017852;28;20025;-57
2021/10/05 04:26:15;;;;;;;5.88;2.10;;;;;;;;;;4997033;28;20096;-58
2021/10/05 04:28:42;;;;;;;5.22;2.10;;;;;;;;;;5003365;28;20125;-58
2021/10/05 04:31:07;;;;;;;5.95;2.33;;;;;;;;;;4993515;28;20022;-59
2021/10/05 04:33:32;;;;;;;4.97;1.65;;;;;;;;;;4994859;28;20035;-58
2021/10/05 04:35:57;;;;;;;5.30;2.27;;;;;;;;;;4998453;28;20022;-58
2021/10/05 04:38:23;;;;;;;5.05;2.17;;;;;;;;;;4997687;28;20257;-57
2021/10/05 04:40:48;;;;;;;6.63;2.25;;;;;;;;;;4997497;28;20462;-56
2021/10/05 04:43:13;;;;;;;5.88;2.85;;;;;;;;;;4999324;28;20030;-59
2021/10/05 04:45:39;;;;;;;5.22;2.67;;;;;;;;;;4996831;28;20444;-57
2021/10/05 04:48:08;;;;;;;5.82;2.70;;;;;;;;;;4997466;28;20445;-57
2021/10/05 04:50:34;;;;;;;5.57;2.70;;;;;;;;;;5002373;28;20034;-57
2021/10/05 04:52:59;;;;;;;5.75;2.40;;;;;;;;;;4996884;28;20026;-56
2021/10/05 04:55:25;;;;;;;6.07;2.85;;;;;;;;;;5000697;28;20036;-58
2021/10/05 04:57:50;;;;;;;13.00;3.70;;;;;;;;;;4997354;28;20109;-57
2021/10/05 05:00:16;;;;;;;6.72;3.13;;;;;;;;;;4998944;28;20041;-57
2021/10/05 05:02:41;;;;;;;16.52;3.60;;;;;;;;;;4999773;28;20105;-57
2021/10/05 05:05:07;;;;;;;6.90;3.58;;;;;;;;;;4996322;28;20393;-55
2021/10/05 05:07:33;;;;;;;6.95;3.40;;;;;;;;;;4997210;28;20021;-57
2021/10/05 05:09:59;;;;;;;7.72;3.78;;;;;;;;;;4988273;28;20034;-56
2021/10/05 05:12:24;;;;;;;9.00;4.07;;;;;;;;;;4993594;28;20034;-57
2021/10/05 05:14:49;;;;;;;8.90;4.80;;;;;;;;;;4997302;28;20033;-57
2021/10/05 05:17:14;;;;;;;8.02;4.13;;;;;;;;;;4998205;28;20021;-59
2021/10/05 05:19:40;;;;;;;7.90;3.80;;;;;;;;;;5002863;28;20030;-57
2021/10/05 05:22:05;;;;;;;7.80;4.38;;;;;;;;;;5003176;28;20279;-57
2021/10/05 05:24:30;;;;;;;8.38;4.50;;;;;;;;;;5000863;28;20026;-58
2021/10/05 05:26:57;;;;;;;9.27;4.65;;;;;;;;;;5000629;28;20028;-58
2021/10/05 05:29:22;;;;;;;9.90;4.25;;;;;;;;;;5001404;28;20028;-57
2021/10/05 05:31:48;;;;;;;9.13;4.73;;;;;;;;;;4996343;28;20029;-57
2021/10/05 05:34:13;;;;;;;10.98;4.95;;;;;;;;;;4998292;28;20261;-58
2021/10/05 05:36:39;;;;;;;8.93;4.75;;;;;;;;;;4999756;28;20096;-57
2021/10/05 05:39:04;;;;;;;9.52;5.13;;;;;;;;;;5000591;28;20701;-59
2021/10/05 05:41:30;;;;;;;10.35;5.03;;;;;;;;;;4996694;28;20029;-58
2021/10/05 05:43:55;;;;;;;9.23;5.10;;;;;;;;;;4993728;28;20786;-58
2021/10/05 05:46:20;;;;;;;8.18;4.43;;;;;;;;;;5005401;28;20037;-58
2021/10/05 05:48:45;;;;;;;8.95;4.22;;;;;;;;;;4996903;28;20432;-58
2021/10/05 05:51:11;;;;;;;7.20;3.73;;;;;;;;;;5003471;28;20026;-57
2021/10/05 05:53:36;;;;;;;9.70;5.00;;;;;;;;;;5000367;28;20243;-58
2021/10/05 05:56:02;;;;;;;8.25;4.57;;;;;;;;;;5001423;28;20249;-57
2021/10/05 05:58:27;;;;;;;9.48;5.25;;;;;;;;;;4997559;28;20393;-58
2021/10/05 06:00:53;;;;;;;9.82;4.78;;;;;;;;;;5001711;28;20054;-59
2021/10/05 06:03:18;;;;;;;8.40;4.60;;;;;;;;;;5001410;28;20083;-57
2021/10/05 06:05:43;;;;;;;6.45;3.03;;;;;;;;;;4999181;28;20026;-57
2021/10/05 06:08:09;;;;;;;9.88;3.38;;;;;;;;;;4999673;28;20021;-57
2021/10/05 06:10:34;;;;;;;8.60;4.05;;;;;;;;;;4994848;28;20480;-56
2021/10/05 06:13:00;;;;;;;6.25;3.28;;;;;;;;;;4994433;28;20021;-57
2021/10/05 06:15:25;;;;;;;7.70;3.70;;;;;;;;;;4996377;28;20572;-57
2021/10/05 06:17:50;;;;;;;5.45;2.70;;;;;;;;;;4988454;28;20276;-57
2021/10/05 06:20:17;;;;;;;5.60;2.40;;;;;;;;;;4997125;28;20015;-56
2021/10/05 06:22:43;;;;;;;5.72;2.70;;;;;;;;;;4995058;28;20064;-56
2021/10/05 06:25:10;;;;;;;5.22;2.40;;;;;;;;;;4999575;28;20480;-56
2021/10/05 06:27:35;;;;;;;4.88;2.10;;;;;;;;;;4999790;28;20014;-56
2021/10/05 06:30:00;;;;;;;4.90;2.40;;;;;;;;;;4995134;28;20423;-57
2021/10/05 06:32:26;;;;;;;6.28;2.70;;;;;;;;;;4998433;28;20057;-56
2021/10/05 06:34:52;;;;;;;5.47;2.83;;;;;;;;;;4994755;28;20065;-57
2021/10/05 06:37:17;;;;;;;6.40;2.30;;;;;;;;;;4995013;28;20034;-56
2021/10/05 06:39:43;;;;;;;5.05;2.35;;;;;;;;;;5001214;28;20018;-57
2021/10/05 06:42:08;;;;;;;5.78;2.78;;;;;;;;;;5005481;28;20018;-57
2021/10/05 06:44:33;;;;;;;6.50;3.22;;;;;;;;;;5000069;28;20028;-57
2021/10/05 06:46:59;;;;;;;6.73;3.67;;;;;;;;;;5004968;28;20026;-58
2021/10/05 06:49:24;;;;;;;7.63;3.92;;;;;;;;;;5001037;28;20283;-57
2021/10/05 06:51:49;;;;;;;7.47;3.90;;;;;;;;;;5003612;28;20464;-57
2021/10/05 06:54:14;;;;;;;6.97;3.50;;;;;;;;;;5002473;28;20287;-57
2021/10/05 06:56:40;;;;;;;6.93;3.50;;;;;;;;;;5005381;28;20650;-57
2021/10/05 06:59:05;;;;;;;8.23;4.93;;;;;;;;;;5003857;28;20025;-58
2021/10/05 07:01:30;;;;;;;10.13;6.10;;;;;;;;;;5002927;28;20259;-59
2021/10/05 07:03:55;;;;;;;9.65;6.53;;;;;;;;;;5006783;28;20022;-59
2021/10/05 07:06:22;;;;;;;10.88;6.47;;;;;;;;;;5004973;28;20097;-58
2021/10/05 07:08:47;;;;;;;10.18;6.07;;;;;;;;;;5002952;28;20034;-58
2021/10/05 07:11:12;;;;;;;8.33;5.37;;;;;;;;;;5004696;28;20670;-58
2021/10/05 07:13:37;;;;;;;8.63;5.20;;;;;;;;;;5003508;28;20468;-58
2021/10/05 07:16:03;;;;;;;7.77;4.53;;;;;;;;;;5012129;28;20773;-57
2021/10/05 07:18:32;;;;;;;12.43;6.07;;;;;;;;;;4997204;28;20638;-57
2021/10/05 07:20:58;;;;;;;;;;;;;;;;;;5002876;28;20562;-57
2021/10/05 07:23:23;;;;;;;8.90;2.73;;;;;;;;;;4998982;28;19906;-57
2021/10/05 07:25:48;;;;;;;9.27;2.60;;;;;;;;;;5002930;28;20029;-56
2021/10/05 07:28:13;;;;;;;5.83;1.70;;;;;;;;;;4997456;28;20014;-59
2021/10/05 07:30:39;;;;;;;5.38;1.85;;;;;;;;;;5001185;28;20707;-56
2021/10/05 07:33:06;;;;;;;7.10;1.73;;;;;;;;;;5005936;28;20887;-57
2021/10/05 07:35:32;;;;;;;6.88;1.70;;;;;;;;;;5005273;28;20075;-57
2021/10/05 07:37:57;;;;;;;7.28;1.70;;;;;;;;;;5005262;28;20022;-57
2021/10/05 07:40:22;;;;;;;6.80;1.88;;;;;;;;;;5004106;28;20034;-57
2021/10/05 07:42:52;;;;;;;6.15;1.70;;;;;;;;;;4997969;28;20014;-58
2021/10/05 07:45:17;;;;;;;6.72;1.73;;;;;;;;;;5016096;28;20488;-57
2021/10/05 07:47:42;;;;;;;7.88;1.80;;;;;;;;;;4998789;28;20010;-57
2021/10/05 07:50:08;;;;;;;6.05;2.03;;;;;;;;;;5009733;28;20018;-58
2021/10/05 07:52:33;;;;;;;6.50;2.33;;;;;;;;;;5002495;28;20033;-58
2021/10/05 07:54:59;;;;;;;6.78;2.50;;;;;;;;;;5000560;28;20034;-57
2021/10/05 07:57:24;;;;;;;7.63;2.13;;;;;;;;;;5003520;28;20244;-58
2021/10/05 07:59:51;;;;;;;8.52;2.85;;;;;;;;;;5001991;28;20362;-57
2021/10/05 08:02:16;;;;;;;6.55;2.75;;;;;;;;;;5000027;28;21203;-57
2021/10/05 08:04:41;;;;;;;8.02;2.60;;;;;;;;;;5009588;28;20099;-57
2021/10/05 08:07:07;;;;;;;8.97;2.30;;;;;;;;;;5002745;28;20026;-57
2021/10/05 08:09:32;;;;;;;7.23;2.10;;;;;;;;;;5002364;28;20299;-56
2021/10/05 08:11:57;;;;;;;6.93;1.90;;;;;;;;;;5007759;28;20260;-58
2021/10/05 08:14:22;;;;;;;8.80;1.87;;;;;;;;;;5000557;28;20809;-58
2021/10/05 08:16:48;;;;;;;6.17;1.80;;;;;;;;;;5002373;28;20281;-58
2021/10/05 08:19:13;;;;;;;6.70;1.98;;;;;;;;;;4998639;28;20257;-56
2021/10/05 08:21:39;;;;;;;9.77;2.15;;;;;;;;;;5002118;28;20045;-57
2021/10/05 08:24:04;;;;;;;7.00;2.30;;;;;;;;;;5003452;28;20021;-58
2021/10/05 08:26:29;;;;;;;8.70;4.50;;;;;;;;;;4999394;28;20264;-57
2021/10/05 08:28:55;;;;;;;12.23;3.60;;;;;;;;;;5002925;28;20136;-58
2021/10/05 08:31:20;;;;;;;10.60;2.87;;;;;;;;;;4997128;28;20037;-58
2021/10/05 08:33:46;;;;;;;8.60;2.70;;;;;;;;;;5003399;28;20249;-57
2021/10/05 08:36:11;;;;;;;8.40;2.33;;;;;;;;;;4996371;28;20128;-57
2021/10/05 08:38:39;;;;;;;6.55;2.22;;;;;;;;;;4999681;28;20092;-58
2021/10/05 08:41:05;;;;;;;8.13;2.70;;;;;;;;;;5012343;28;20562;-57
2021/10/05 08:43:30;;;;;;;7.53;2.30;;;;;;;;;;4995164;28;20037;-57
2021/10/05 08:46:00;;;;;;;8.27;2.25;;;;;;;;;;5008016;28;20329;-56
2021/10/05 08:48:29;;;;;;;6.95;2.22;;;;;;;;;;5004592;28;20021;-58
2021/10/05 08:50:54;;;;;;;9.07;2.70;;;;;;;;;;5005261;28;20081;-58
2021/10/05 08:53:20;;;;;;;7.65;2.72;;;;;;;;;;5001086;28;20562;-57
2021/10/05 08:55:45;;;;;;;6.70;2.33;;;;;;;;;;4994775;28;20219;-58
2021/10/05 08:58:10;;;;;;;7.28;2.28;;;;;;;;;;5000158;28;20054;-57
2021/10/05 09:00:37;;;;;;;9.07;2.33;;;;;;;;;;5000027;28;20432;-57
2021/10/05 09:03:03;;;;;;;6.90;2.03;;;;;;;;;;5000047;28;20244;-57
2021/10/05 09:05:28;;;;;;;6.18;2.20;;;;;;;;;;5001396;28;20661;-57
2021/10/05 09:07:56;;;;;;;8.65;2.30;;;;;;;;;;5000885;28;20113;-58
2021/10/05 09:10:23;;;;;;;9.20;2.38;;;;;;;;;;5000323;28;20061;-58
2021/10/05 09:12:49;;;;;;;8.88;2.85;;;;;;;;;;5000248;28;20057;-56
2021/10/05 09:15:15;;;;;;;7.47;2.58;;;;;;;;;;4999223;28;20038;-57
2021/10/05 09:17:41;;;;;;;7.63;2.60;;;;;;;;;;5006017;28;20018;-59
2021/10/05 09:20:17;;;;;;;6.95;2.30;;;;;;;;;;5001632;28;20033;-58
2021/10/05 09:22:42;;;;;;;9.38;2.50;;;;;;;;;;5005210;28;20090;-58
2021/10/05 09:25:10;;;;;;;7.60;2.42;;;;;;;;;;4998627;28;20050;-57
2021/10/05 09:27:46;;;;;;;7.35;2.10;;;;;;;;;;5008341;28;20338;-57
2021/10/05 09:30:14;;;;;;;9.85;3.20;;;;;;;;;;5013560;28;20026;-57
2021/10/05 09:32:39;;;;;;;7.75;2.40;;;;;;;;;;4999618;28;20021;-58
2021/10/05 09:35:05;;;;;;;8.03;2.50;;;;;;;;;;4998685;28;20432;-58
2021/10/05 09:37:31;;;;;;;6.78;2.53;;;;;;;;;;5003137;28;20647;-57
2021/10/05 09:40:01;;;;;;;8.85;2.83;;;;;;;;;;4992566;28;20097;-57
2021/10/05 09:42:28;;;;;;;7.18;2.40;;;;;;;;;;5006504;28;20036;-55
2021/10/05 09:44:53;;;;;;;7.80;2.42;;;;;;;;;;5007613;28;20013;-57
2021/10/05 09:47:28;;;;;;;7.60;2.30;;;;;;;;;;5001384;28;20021;-57
2021/10/05 09:49:54;;;;;;;6.45;1.85;;;;;;;;;;4996595;28;20041;-57
2021/10/05 09:52:19;;;;;;;7.80;2.23;;;;;;;;;;4999247;28;20034;-56
2021/10/05 09:54:44;;;;;;;6.88;2.28;;;;;;;;;;5001592;28;20459;-57
2021/10/05 09:57:10;;;;;;;9.18;2.63;;;;;;;;;;5005167;28;20061;-58
2021/10/05 09:59:35;;;;;;;7.10;2.33;;;;;;;;;;5002135;28;20100;-57
2021/10/05 10:02:01;;;;;;;8.48;2.28;;;;;;;;;;4995698;28;20550;-57
2021/10/05 10:04:27;;;;;;;8.10;2.22;;;;;;;;;;5001998;28;20026;-57
2021/10/05 10:06:53;;;;;;;8.02;2.10;;;;;;;;;;4999414;28;20119;-57
2021/10/05 10:09:18;;;;;;;8.27;2.60;;;;;;;;;;4998059;28;20821;-57
2021/10/05 10:11:43;;;;;;;6.50;2.10;;;;;;;;;;4998942;28;20037;-57
2021/10/05 10:14:09;;;;;;;7.63;2.17;;;;;;;;;;5013474;28;20772;-57
2021/10/05 10:16:35;;;;;;;5.85;2.20;;;;;;;;;;5000198;28;20057;-58
2021/10/05 10:19:02;;;;;;;5.32;1.90;;;;;;;;;;4994793;28;20029;-58
2021/10/05 10:21:39;;;;;;;7.18;2.63;;;;;;;;;;5000037;28;20025;-57
2021/10/05 10:24:11;;;;;;;6.10;2.00;;;;;;;;;;5007492;28;20428;-56
2021/10/05 10:26:40;;;;;;;9.75;3.00;;;;;;;;;;5013659;28;20022;-57
2021/10/05 10:29:06;;;;;;;5.28;2.03;;;;;;;;;;4999910;28;20052;-56
2021/10/05 10:31:33;;;;;;;6.85;2.50;;;;;;;;;;4999672;28;20029;-57
2021/10/05 10:33:58;;;;;;;8.88;2.85;;;;;;;;;;5017939;28;20029;-56
2021/10/05 10:36:31;;;;;;;6.13;2.13;;;;;;;;;;5015822;28;20022;-58
2021/10/05 10:39:04;;;;;;;7.47;1.98;;;;;;;;;;5002162;28;20026;-57
2021/10/05 10:41:29;;;;;;;6.88;2.13;;;;;;;;;;5013355;28;20648;-58
2021/10/05 10:44:03;;;;;;;6.28;2.28;;;;;;;;;;4998122;28;20086;-57
2021/10/05 10:46:30;;;;;;;6.43;2.17;;;;;;;;;;5000623;28;20033;-57
2021/10/05 10:48:57;;;;;;;5.90;2.40;;;;;;;;;;4998958;28;20030;-57
2021/10/05 10:51:27;;;;;;;7.20;2.22;;;;;;;;;;5000091;28;20045;-57
2021/10/05 10:53:53;;;;;;;8.30;3.33;;;;;;;;;;4993704;28;20315;-57
2021/10/05 10:56:28;;;;;;;6.80;3.13;;;;;;;;;;5002455;28;20496;-56
2021/10/05 10:58:57;;;;;;;7.78;3.50;;;;;;;;;;5001944;28;20030;-57
2021/10/05 11:01:33;;;;;;;11.40;2.97;;;;;;;;;;5015218;28;20034;-58
2021/10/05 11:04:05;;;;;;;7.05;3.15;;;;;;;;;;5002462;28;20029;-56
2021/10/05 11:06:30;;;;;;;6.25;2.78;;;;;;;;;;4994219;28;20044;-57
2021/10/05 11:08:56;;;;;;;6.25;2.63;;;;;;;;;;5000062;28;20033;-56
2021/10/05 11:11:43;;;;;;;7.13;2.92;;;;;;;;;;5001950;28;20089;-56
2021/10/05 11:14:13;;;;;;;7.32;2.70;;;;;;;;;;4998977;28;20025;-58
2021/10/05 11:16:39;;;;;;;6.45;2.85;;;;;;;;;;5003581;28;20028;-56
2021/10/05 11:19:04;;;;;;;7.43;2.40;;;;;;;;;;5010998;28;20018;-56
2021/10/05 11:21:30;;;;;;;7.30;2.37;;;;;;;;;;4994886;28;20395;-56
2021/10/05 11:23:55;;;;;;;5.80;2.38;;;;;;;;;;4995512;28;20265;-57
2021/10/05 11:26:28;;;;;;;6.25;2.30;;;;;;;;;;4994922;28;20109;-56
2021/10/05 11:28:54;;;;;;;6.72;2.45;;;;;;;;;;5000315;28;20033;-56
2021/10/05 11:31:19;;;;;;;8.80;3.20;;;;;;;;;;4994040;28;20073;-58
2021/10/05 11:33:46;;;;;;;6.87;2.73;;;;;;;;;;4995886;28;20262;-58
2021/10/05 11:36:18;;;;;;;6.82;3.05;;;;;;;;;;4989492;28;20357;-58
2021/10/05 11:38:46;;;;;;;6.30;3.00;;;;;;;;;;4996063;28;20392;-58
2021/10/05 11:41:11;;;;;;;8.27;2.80;;;;;;;;;;4998533;28;20033;-56
2021/10/05 11:43:41;;;;;;;8.85;2.90;;;;;;;;;;4998513;28;20495;-57
2021/10/05 11:46:16;;;;;;;6.00;2.65;;;;;;;;;;4992464;28;20034;-57
2021/10/05 11:48:47;;;;;;;5.75;2.55;;;;;;;;;;4994994;28;20034;-58
2021/10/05 11:51:13;;;;;;;7.38;3.20;;;;;;;;;;5004397;28;20037;-58
2021/10/05 11:53:39;;;;;;;7.47;2.45;;;;;;;;;;4973946;28;20026;-58
2021/10/05 11:56:05;;;;;;;6.68;2.40;;;;;;;;;;5015056;28;20400;-59
2021/10/05 11:58:44;;;;;;;10.20;2.67;;;;;;;;;;5010085;28;20054;-57
2021/10/05 12:01:16;;;;;;;9.00;2.88;;;;;;;;;;5003548;28;20022;-58
2021/10/05 12:03:42;;;;;;;6.57;2.50;;;;;;;;;;4998472;28;20036;-58
2021/10/05 12:06:07;;;;;;;7.30;2.30;;;;;;;;;;5011696;28;20014;-57
2021/10/05 12:08:32;;;;;;;7.60;2.75;;;;;;;;;;5000013;28;21394;-58
2021/10/05 12:10:58;;;;;;;7.30;2.60;;;;;;;;;;5002834;28;20026;-58
2021/10/05 12:13:23;;;;;;;7.47;2.50;;;;;;;;;;5002796;28;20029;-58
2021/10/05 12:15:48;;;;;;;9.57;3.10;;;;;;;;;;5000274;28;20017;-58
2021/10/05 12:18:14;;;;;;;9.40;2.93;;;;;;;;;;5002393;28;20648;-59
2021/10/05 12:20:39;;;;;;;8.23;2.90;;;;;;;;;;4999846;28;20268;-58
2021/10/05 12:23:07;;;;;;;8.35;3.28;;;;;;;;;;5004558;28;20028;-58
2021/10/05 12:25:37;;;;;;;9.93;3.20;;;;;;;;;;5003579;28;20024;-57
2021/10/05 12:28:05;;;;;;;7.47;2.80;;;;;;;;;;4994959;28;20034;-57
2021/10/05 12:30:31;;;;;;;6.78;2.97;;;;;;;;;;4992206;28;20106;-57
2021/10/05 12:32:58;;;;;;;8.25;4.00;;;;;;;;;;5000348;28;20029;-58
2021/10/05 12:35:35;;;;;;;9.57;3.28;;;;;;;;;;4997588;28;20158;-57
2021/10/05 12:38:06;;;;;;;7.05;3.25;;;;;;;;;;5013813;28;20025;-57
2021/10/05 12:40:58;;;;;;;7.13;3.00;;;;;;;;;;5002896;28;20116;-57
2021/10/05 12:43:36;;;;;;;8.23;3.03;;;;;;;;;;4996315;28;20044;-59
2021/10/05 12:46:04;;;;;;;7.82;3.10;;;;;;;;;;4999291;28;20109;-59
2021/10/05 12:48:41;;;;;;;6.35;2.90;;;;;;;;;;5001585;28;20018;-58
2021/10/05 12:51:16;;;;;;;10.27;2.70;;;;;;;;;;4994208;28;20124;-58
2021/10/05 12:53:42;;;;;;;8.57;2.75;;;;;;;;;;4999239;28;20026;-57
2021/10/05 12:56:07;;;;;;;8.68;2.78;;;;;;;;;;4989782;28;20022;-58
2021/10/05 12:58:35;;;;;;;9.10;3.53;;;;;;;;;;5006192;28;20287;-59
2021/10/05 13:01:00;;;;;;;10.85;3.50;;;;;;;;;;4995203;28;20161;-58
2021/10/05 13:03:25;;;;;;;8.20;3.20;;;;;;;;;;4998875;28;20112;-58
2021/10/05 13:05:51;;;;;;;8.70;3.25;;;;;;;;;;4997521;28;20026;-58
2021/10/05 13:08:16;;;;;;;9.07;3.25;;;;;;;;;;5001996;28;20030;-58
2021/10/05 13:10:42;;;;;;;10.25;3.33;;;;;;;;;;4999986;28;20084;-58
2021/10/05 13:13:07;;;;;;;8.77;3.28;;;;;;;;;;4999837;28;20037;-59
2021/10/05 13:15:32;;;;;;;11.07;3.28;;;;;;;;;;4992031;28;20025;-57
2021/10/05 13:17:58;;;;;;;7.10;2.85;;;;;;;;;;5001770;28;20619;-57
2021/10/05 13:20:24;;;;;;;8.15;3.35;;;;;;;;;;4994355;28;20056;-57
2021/10/05 13:22:49;;;;;;;9.30;3.13;;;;;;;;;;5002528;28;20092;-57
2021/10/05 13:25:15;;;;;;;6.43;2.45;;;;;;;;;;4998885;28;20021;-57
2021/10/05 13:27:40;;;;;;;7.63;3.00;;;;;;;;;;4993572;28;20349;-57
2021/10/05 13:30:07;;;;;;;12.55;3.33;;;;;;;;;;5002015;28;20436;-57
2021/10/05 13:32:33;;;;;;;10.02;3.25;;;;;;;;;;4997891;28;20089;-57
2021/10/05 13:34:59;;;;;;;10.73;3.47;;;;;;;;;;5000352;28;20020;-56
2021/10/05 13:37:24;;;;;;;9.30;3.20;;;;;;;;;;5001686;28;20029;-57
2021/10/05 13:39:50;;;;;;;9.63;3.33;;;;;;;;;;5008340;28;20496;-57
2021/10/05 13:42:15;;;;;;;8.73;3.58;;;;;;;;;;5000591;28;20114;-57
2021/10/05 13:44:40;;;;;;;7.13;2.73;;;;;;;;;;4994542;28;20531;-57
2021/10/05 13:47:05;;;;;;;8.20;3.22;;;;;;;;;;4997900;28;20237;-57
2021/10/05 13:49:31;;;;;;;10.83;2.47;;;;;;;;;;5000565;28;20195;-58
2021/10/05 13:51:56;;;;;;;11.52;2.30;;;;;;;;;;4996892;28;20323;-58
2021/10/05 13:54:21;;;;;;;9.88;2.53;;;;;;;;;;5000993;28;20018;-58
2021/10/05 13:56:47;;;;;;;8.25;2.30;;;;;;;;;;4999718;28;20058;-57
2021/10/05 13:59:12;;;;;;;8.43;2.85;;;;;;;;;;5000033;28;20050;-57
2021/10/05 14:01:38;;;;;;;11.23;3.50;;;;;;;;;;4996175;28;20014;-58
2021/10/05 14:04:04;;;;;;;9.00;2.90;;;;;;;;;;4972211;28;20018;-57
2021/10/05 14:06:30;;;;;;;9.93;3.50;;;;;;;;;;4995291;28;20084;-58
2021/10/05 14:08:55;;;;;;;6.68;2.72;;;;;;;;;;4996565;28;20026;-58
2021/10/05 14:11:21;;;;;;;8.13;2.97;;;;;;;;;;5000827;28;20030;-58
2021/10/05 14:13:46;;;;;;;7.47;3.40;;;;;;;;;;4998698;28;20433;-56
2021/10/05 14:16:11;;;;;;;6.07;2.95;;;;;;;;;;4996916;28;20381;-57
2021/10/05 14:18:36;;;;;;;7.05;2.65;;;;;;;;;;5002565;28;20049;-57
2021/10/05 14:21:03;;;;;;;6.88;2.40;;;;;;;;;;4998466;28;20136;-57
2021/10/05 14:23:28;;;;;;;7.57;2.45;;;;;;;;;;4999939;28;20367;-57
2021/10/05 14:25:53;;;;;;;5.28;1.88;;;;;;;;;;5000358;28;20045;-58
2021/10/05 14:28:19;;;;;;;10.30;2.15;;;;;;;;;;4998891;28;20477;-58
2021/10/05 14:30:45;;;;;;;7.50;2.08;;;;;;;;;;5001001;28;20026;-58
2021/10/05 14:33:11;;;;;;;6.50;2.40;;;;;;;;;;5000283;28;20049;-59
2021/10/05 14:35:39;;;;;;;7.80;1.80;;;;;;;;;;4996234;28;20025;-59
2021/10/05 14:38:08;;;;;;;6.78;1.83;;;;;;;;;;4999431;28;20037;-59